sensor_id;sensor_type;location;lat;lon;timestamp;temperature;humidity
31113;DHT22;17763;48.730;9.136;2023-02-01T00:00:15;3.70;99.90
31113;DHT22;17763;48.730;9.136;2023-02-01T00:02:41;3.70;99.90
31113;DHT22;17763;48.730;9.136;2023-02-01T00:05:08;3.60;99.90
31113;DHT22;17763;48.730;9.136;2023-02-01T00:07:35;3.60;99.90
31113;DHT22;17763;48.730;9.136;2023-02-01T00:10:04;3.60;99.90
31113;DHT22;17763;48.730;9.136;2023-02-01T00:12:31;3.60;99.90
31113;DHT22;17763;48.730;9.136;2023-02-01T00:14:59;3.60;99.90
31113;DHT22;17763;48.730;9.136;2023-02-01T00:17:25;3.50;99.90
31113;DHT22;17763;48.730;9.136;2023-02-01T00:19:51;3.50;99.90
31113;DHT22;17763;48.730;9.136;2023-02-01T00:22:17;3.60;99.90
31113;DHT22;17763;48.730;9.136;2023-02-01T00:24:47;3.50;99.90
31113;DHT22;17763;48.730;9.136;2023-02-01T00:27:12;3.60;99.90
31113;DHT22;17763;48.730;9.136;2023-02-01T00:29:43;3.60;99.90
31113;DHT22;17763;48.730;9.136;2023-02-01T00:32:12;3.50;99.90
31113;DHT22;17763;48.730;9.136;2023-02-01T00:34:38;3.50;99.90
31113;DHT22;17763;48.730;9.136;2023-02-01T00:37:04;3.60;99.90
31113;DHT22;17763;48.730;9.136;2023-02-01T00:39:29;3.60;99.90
31113;DHT22;17763;48.730;9.136;2023-02-01T00:41:55;3.60;99.90
31113;DHT22;17763;48.730;9.136;2023-02-01T00:44:21;3.60;99.90
31113;DHT22;17763;48.730;9.136;2023-02-01T00:46:47;3.50;99.90
31113;DHT22;17763;48.730;9.136;2023-02-01T00:49:12;3.50;99.90
31113;DHT22;17763;48.730;9.136;2023-02-01T00:51:38;3.40;99.90
31113;DHT22;17763;48.730;9.136;2023-02-01T00:54:04;3.50;99.90
31113;DHT22;17763;48.730;9.136;2023-02-01T00:56:30;3.50;99.90
31113;DHT22;17763;48.730;9.136;2023-02-01T00:58:56;3.50;99.90
31113;DHT22;17763;48.730;9.136;2023-02-01T01:01:25;3.40;99.90
31113;DHT22;17763;48.730;9.136;2023-02-01T01:03:53;3.50;99.90
31113;DHT22;17763;48.730;9.136;2023-02-01T01:06:27;3.60;99.90
31113;DHT22;17763;48.730;9.136;2023-02-01T01:08:59;3.50;99.90
31113;DHT22;17763;48.730;9.136;2023-02-01T01:11:29;3.60;99.90
31113;DHT22;17763;48.730;9.136;2023-02-01T01:13:57;3.60;99.90
31113;DHT22;17763;48.730;9.136;2023-02-01T01:16:24;3.60;99.90
31113;DHT22;17763;48.730;9.136;2023-02-01T01:18:50;3.60;99.90
31113;DHT22;17763;48.730;9.136;2023-02-01T01:21:17;3.60;99.90
31113;DHT22;17763;48.730;9.136;2023-02-01T01:23:43;3.50;99.90
31113;DHT22;17763;48.730;9.136;2023-02-01T01:26:13;3.50;99.90
31113;DHT22;17763;48.730;9.136;2023-02-01T01:28:39;3.60;99.90
31113;DHT22;17763;48.730;9.136;2023-02-01T01:31:09;3.50;99.90
31113;DHT22;17763;48.730;9.136;2023-02-01T01:33:35;3.60;99.90
31113;DHT22;17763;48.730;9.136;2023-02-01T01:36:01;3.60;99.90
31113;DHT22;17763;48.730;9.136;2023-02-01T01:38:27;3.70;99.90
31113;DHT22;17763;48.730;9.136;2023-02-01T01:40:52;3.70;99.90
31113;DHT22;17763;48.730;9.136;2023-02-01T01:43:20;3.70;99.90
31113;DHT22;17763;48.730;9.136;2023-02-01T01:45:48;3.70;99.90
31113;DHT22;17763;48.730;9.136;2023-02-01T01:48:34;3.70;99.90
31113;DHT22;17763;48.730;9.136;2023-02-01T01:51:08;3.70;99.90
31113;DHT22;17763;48.730;9.136;2023-02-01T01:53:45;3.70;99.90
31113;DHT22;17763;48.730;9.136;2023-02-01T01:56:12;3.70;99.90
31113;DHT22;17763;48.730;9.136;2023-02-01T01:58:38;3.80;99.90
31113;DHT22;17763;48.730;9.136;2023-02-01T02:01:04;3.80;99.90
31113;DHT22;17763;48.730;9.136;2023-02-01T02:03:42;3.80;99.90
31113;DHT22;17763;48.730;9.136;2023-02-01T02:06:24;3.80;99.90
31113;DHT22;17763;48.730;9.136;2023-02-01T02:08:52;3.90;99.90
31113;DHT22;17763;48.730;9.136;2023-02-01T02:11:18;3.90;99.90
31113;DHT22;17763;48.730;9.136;2023-02-01T02:13:48;3.90;99.90
31113;DHT22;17763;48.730;9.136;2023-02-01T02:36:09;3.90;99.90
31113;DHT22;17763;48.730;9.136;2023-02-01T02:38:47;3.90;99.90
31113;DHT22;17763;48.730;9.136;2023-02-01T02:41:35;3.80;99.90
31113;DHT22;17763;48.730;9.136;2023-02-01T02:44:33;3.90;99.90
31113;DHT22;17763;48.730;9.136;2023-02-01T02:47:44;3.90;99.90
31113;DHT22;17763;48.730;9.136;2023-02-01T02:50:20;3.90;99.90
31113;DHT22;17763;48.730;9.136;2023-02-01T02:53:13;3.90;99.90
31113;DHT22;17763;48.730;9.136;2023-02-01T02:55:59;3.90;99.90
31113;DHT22;17763;48.730;9.136;2023-02-01T02:58:46;3.90;99.90
31113;DHT22;17763;48.730;9.136;2023-02-01T03:01:31;3.90;99.90
31113;DHT22;17763;48.730;9.136;2023-02-01T03:04:16;3.90;99.90
31113;DHT22;17763;48.730;9.136;2023-02-01T03:06:44;3.80;99.90
31113;DHT22;17763;48.730;9.136;2023-02-01T03:09:26;3.80;99.90
31113;DHT22;17763;48.730;9.136;2023-02-01T03:12:00;3.90;99.90
31113;DHT22;17763;48.730;9.136;2023-02-01T03:14:51;3.80;99.90
31113;DHT22;17763;48.730;9.136;2023-02-01T03:17:22;3.80;99.90
31113;DHT22;17763;48.730;9.136;2023-02-01T03:19:52;3.90;99.90
31113;DHT22;17763;48.730;9.136;2023-02-01T03:22:26;3.90;99.90
31113;DHT22;17763;48.730;9.136;2023-02-01T03:24:54;3.80;99.90
31113;DHT22;17763;48.730;9.136;2023-02-01T03:27:42;3.80;99.90
31113;DHT22;17763;48.730;9.136;2023-02-01T03:30:22;3.80;99.90
31113;DHT22;17763;48.730;9.136;2023-02-01T03:32:51;3.90;99.90
31113;DHT22;17763;48.730;9.136;2023-02-01T03:35:42;3.90;99.90
31113;DHT22;17763;48.730;9.136;2023-02-01T03:38:18;3.90;99.90
31113;DHT22;17763;48.730;9.136;2023-02-01T03:40:52;3.90;99.90
31113;DHT22;17763;48.730;9.136;2023-02-01T03:43:20;3.80;99.90
31113;DHT22;17763;48.730;9.136;2023-02-01T03:45:52;3.80;99.90
31113;DHT22;17763;48.730;9.136;2023-02-01T03:48:18;3.90;99.90
31113;DHT22;17763;48.730;9.136;2023-02-01T03:50:52;3.90;99.90
31113;DHT22;17763;48.730;9.136;2023-02-01T03:53:21;3.90;99.90
31113;DHT22;17763;48.730;9.136;2023-02-01T03:55:48;3.90;99.90
31113;DHT22;17763;48.730;9.136;2023-02-01T03:58:20;3.90;99.90
31113;DHT22;17763;48.730;9.136;2023-02-01T04:00:55;3.90;99.90
31113;DHT22;17763;48.730;9.136;2023-02-01T04:03:20;3.90;99.90
31113;DHT22;17763;48.730;9.136;2023-02-01T04:05:48;4.00;99.90
31113;DHT22;17763;48.730;9.136;2023-02-01T04:08:17;4.00;99.90
31113;DHT22;17763;48.730;9.136;2023-02-01T04:10:43;4.00;99.90
31113;DHT22;17763;48.730;9.136;2023-02-01T04:13:09;4.00;99.90
31113;DHT22;17763;48.730;9.136;2023-02-01T04:15:35;4.10;99.90
31113;DHT22;17763;48.730;9.136;2023-02-01T04:18:03;4.10;99.90
31113;DHT22;17763;48.730;9.136;2023-02-01T04:20:29;4.10;99.90
31113;DHT22;17763;48.730;9.136;2023-02-01T04:22:55;4.10;99.90
31113;DHT22;17763;48.730;9.136;2023-02-01T04:25:20;4.10;99.90
31113;DHT22;17763;48.730;9.136;2023-02-01T04:27:46;4.10;99.90
31113;DHT22;17763;48.730;9.136;2023-02-01T04:30:13;4.10;99.90
31113;DHT22;17763;48.730;9.136;2023-02-01T04:32:39;4.10;99.90
31113;DHT22;17763;48.730;9.136;2023-02-01T04:35:07;4.10;99.90
31113;DHT22;17763;48.730;9.136;2023-02-01T04:37:34;4.10;99.90
31113;DHT22;17763;48.730;9.136;2023-02-01T04:40:02;4.00;99.90
31113;DHT22;17763;48.730;9.136;2023-02-01T04:42:29;4.00;99.90
31113;DHT22;17763;48.730;9.136;2023-02-01T04:44:54;4.10;99.90
31113;DHT22;17763;48.730;9.136;2023-02-01T04:47:20;4.10;99.90
31113;DHT22;17763;48.730;9.136;2023-02-01T04:49:46;4.10;99.90
31113;DHT22;17763;48.730;9.136;2023-02-01T04:52:12;4.10;99.90
31113;DHT22;17763;48.730;9.136;2023-02-01T04:54:37;4.10;99.90
31113;DHT22;17763;48.730;9.136;2023-02-01T04:57:03;4.10;99.90
31113;DHT22;17763;48.730;9.136;2023-02-01T04:59:29;4.10;99.90
31113;DHT22;17763;48.730;9.136;2023-02-01T05:01:57;4.10;99.90
31113;DHT22;17763;48.730;9.136;2023-02-01T05:04:22;4.20;99.90
31113;DHT22;17763;48.730;9.136;2023-02-01T05:06:48;4.20;99.90
31113;DHT22;17763;48.730;9.136;2023-02-01T05:09:14;4.10;99.90
31113;DHT22;17763;48.730;9.136;2023-02-01T05:11:40;4.10;99.90
31113;DHT22;17763;48.730;9.136;2023-02-01T05:14:24;4.10;99.90
31113;DHT22;17763;48.730;9.136;2023-02-01T05:16:49;4.10;99.90
31113;DHT22;17763;48.730;9.136;2023-02-01T05:19:15;4.10;99.90
31113;DHT22;17763;48.730;9.136;2023-02-01T05:21:41;4.20;99.90
31113;DHT22;17763;48.730;9.136;2023-02-01T05:24:08;4.10;99.90
31113;DHT22;17763;48.730;9.136;2023-02-01T05:26:45;4.10;99.90
31113;DHT22;17763;48.730;9.136;2023-02-01T05:29:11;4.20;99.90
31113;DHT22;17763;48.730;9.136;2023-02-01T05:31:38;4.10;99.90
31113;DHT22;17763;48.730;9.136;2023-02-01T05:34:06;4.20;99.90
31113;DHT22;17763;48.730;9.136;2023-02-01T05:36:32;4.20;99.90
31113;DHT22;17763;48.730;9.136;2023-02-01T05:38:58;4.20;99.90
31113;DHT22;17763;48.730;9.136;2023-02-01T05:41:24;4.10;99.90
31113;DHT22;17763;48.730;9.136;2023-02-01T05:43:50;4.10;99.90
31113;DHT22;17763;48.730;9.136;2023-02-01T05:46:16;4.10;99.90
31113;DHT22;17763;48.730;9.136;2023-02-01T05:48:42;4.10;99.90
31113;DHT22;17763;48.730;9.136;2023-02-01T05:51:09;4.10;99.90
31113;DHT22;17763;48.730;9.136;2023-02-01T05:53:35;4.10;99.90
31113;DHT22;17763;48.730;9.136;2023-02-01T05:56:03;4.10;99.90
31113;DHT22;17763;48.730;9.136;2023-02-01T05:58:29;4.10;99.90
31113;DHT22;17763;48.730;9.136;2023-02-01T06:00:55;4.10;99.90
31113;DHT22;17763;48.730;9.136;2023-02-01T06:03:20;4.10;99.90
31113;DHT22;17763;48.730;9.136;2023-02-01T06:05:49;4.10;99.90
31113;DHT22;17763;48.730;9.136;2023-02-01T06:08:14;4.10;99.90
31113;DHT22;17763;48.730;9.136;2023-02-01T06:10:40;4.10;99.90
31113;DHT22;17763;48.730;9.136;2023-02-01T06:13:06;4.00;99.90
31113;DHT22;17763;48.730;9.136;2023-02-01T06:15:32;4.00;99.90
31113;DHT22;17763;48.730;9.136;2023-02-01T06:17:58;3.90;99.90
31113;DHT22;17763;48.730;9.136;2023-02-01T06:20:24;3.90;99.90
31113;DHT22;17763;48.730;9.136;2023-02-01T06:22:50;3.80;99.90
31113;DHT22;17763;48.730;9.136;2023-02-01T06:25:16;3.70;99.90
31113;DHT22;17763;48.730;9.136;2023-02-01T06:27:42;3.80;99.90
31113;DHT22;17763;48.730;9.136;2023-02-01T06:30:12;3.70;99.90
31113;DHT22;17763;48.730;9.136;2023-02-01T06:32:42;3.70;99.90
31113;DHT22;17763;48.730;9.136;2023-02-01T06:35:09;3.70;99.90
31113;DHT22;17763;48.730;9.136;2023-02-01T06:37:41;3.70;99.90
31113;DHT22;17763;48.730;9.136;2023-02-01T06:40:08;3.70;99.90
31113;DHT22;17763;48.730;9.136;2023-02-01T06:42:34;3.70;99.90
31113;DHT22;17763;48.730;9.136;2023-02-01T06:45:00;3.70;99.90
31113;DHT22;17763;48.730;9.136;2023-02-01T06:47:25;3.70;99.90
31113;DHT22;17763;48.730;9.136;2023-02-01T06:49:51;3.70;99.90
31113;DHT22;17763;48.730;9.136;2023-02-01T06:52:17;3.70;99.90
31113;DHT22;17763;48.730;9.136;2023-02-01T06:54:42;3.80;99.90
31113;DHT22;17763;48.730;9.136;2023-02-01T06:57:14;3.80;99.90
31113;DHT22;17763;48.730;9.136;2023-02-01T06:59:40;3.90;99.90
31113;DHT22;17763;48.730;9.136;2023-02-01T07:02:05;3.90;99.90
31113;DHT22;17763;48.730;9.136;2023-02-01T07:04:31;3.90;99.90
31113;DHT22;17763;48.730;9.136;2023-02-01T07:06:59;4.00;99.90
31113;DHT22;17763;48.730;9.136;2023-02-01T07:09:24;3.90;99.90
31113;DHT22;17763;48.730;9.136;2023-02-01T07:11:50;4.00;99.90
31113;DHT22;17763;48.730;9.136;2023-02-01T07:14:16;4.00;99.90
31113;DHT22;17763;48.730;9.136;2023-02-01T07:16:42;4.20;99.90
31113;DHT22;17763;48.730;9.136;2023-02-01T07:19:07;4.00;99.90
31113;DHT22;17763;48.730;9.136;2023-02-01T07:21:33;4.00;99.90
31113;DHT22;17763;48.730;9.136;2023-02-01T07:23:59;4.00;99.90
31113;DHT22;17763;48.730;9.136;2023-02-01T07:26:25;4.10;99.90
31113;DHT22;17763;48.730;9.136;2023-02-01T07:28:53;4.00;99.90
31113;DHT22;17763;48.730;9.136;2023-02-01T07:31:19;4.00;99.90
31113;DHT22;17763;48.730;9.136;2023-02-01T07:33:49;4.00;99.90
31113;DHT22;17763;48.730;9.136;2023-02-01T07:36:20;4.10;99.90
31113;DHT22;17763;48.730;9.136;2023-02-01T07:38:46;4.00;99.90
31113;DHT22;17763;48.730;9.136;2023-02-01T07:41:19;4.00;99.90
31113;DHT22;17763;48.730;9.136;2023-02-01T07:43:45;4.00;99.90
31113;DHT22;17763;48.730;9.136;2023-02-01T07:46:11;4.00;99.90
31113;DHT22;17763;48.730;9.136;2023-02-01T07:48:37;4.00;99.90
31113;DHT22;17763;48.730;9.136;2023-02-01T07:51:04;4.10;99.90
31113;DHT22;17763;48.730;9.136;2023-02-01T07:53:32;4.10;99.90
31113;DHT22;17763;48.730;9.136;2023-02-01T07:56:01;4.10;99.90
31113;DHT22;17763;48.730;9.136;2023-02-01T07:58:28;4.20;99.90
31113;DHT22;17763;48.730;9.136;2023-02-01T08:00:54;4.20;99.90
31113;DHT22;17763;48.730;9.136;2023-02-01T08:03:39;4.30;99.90
31113;DHT22;17763;48.730;9.136;2023-02-01T08:06:05;4.30;99.90
31113;DHT22;17763;48.730;9.136;2023-02-01T08:08:31;4.30;99.90
31113;DHT22;17763;48.730;9.136;2023-02-01T08:11:02;4.30;99.90
31113;DHT22;17763;48.730;9.136;2023-02-01T08:13:32;4.30;99.90
31113;DHT22;17763;48.730;9.136;2023-02-01T08:15:59;4.30;99.90
31113;DHT22;17763;48.730;9.136;2023-02-01T08:18:25;4.30;99.90
31113;DHT22;17763;48.730;9.136;2023-02-01T08:20:51;4.30;99.90
31113;DHT22;17763;48.730;9.136;2023-02-01T08:23:17;4.30;99.90
31113;DHT22;17763;48.730;9.136;2023-02-01T08:25:45;4.30;99.90
31113;DHT22;17763;48.730;9.136;2023-02-01T08:28:12;4.30;99.90
31113;DHT22;17763;48.730;9.136;2023-02-01T08:30:40;4.30;99.90
31113;DHT22;17763;48.730;9.136;2023-02-01T08:33:07;4.30;99.90
31113;DHT22;17763;48.730;9.136;2023-02-01T08:35:35;4.30;99.90
31113;DHT22;17763;48.730;9.136;2023-02-01T08:38:01;4.30;99.90
31113;DHT22;17763;48.730;9.136;2023-02-01T08:40:27;4.30;99.90
31113;DHT22;17763;48.730;9.136;2023-02-01T08:42:55;4.30;99.90
31113;DHT22;17763;48.730;9.136;2023-02-01T08:45:27;4.40;99.90
31113;DHT22;17763;48.730;9.136;2023-02-01T08:47:55;4.40;99.90
31113;DHT22;17763;48.730;9.136;2023-02-01T08:50:22;4.40;99.90
31113;DHT22;17763;48.730;9.136;2023-02-01T08:52:48;4.50;99.90
31113;DHT22;17763;48.730;9.136;2023-02-01T08:55:14;4.50;99.90
31113;DHT22;17763;48.730;9.136;2023-02-01T08:57:42;4.60;99.90
31113;DHT22;17763;48.730;9.136;2023-02-01T09:00:11;4.60;99.90
31113;DHT22;17763;48.730;9.136;2023-02-01T09:02:37;4.60;99.90
31113;DHT22;17763;48.730;9.136;2023-02-01T09:05:06;4.70;99.90
31113;DHT22;17763;48.730;9.136;2023-02-01T09:07:33;4.70;99.90
31113;DHT22;17763;48.730;9.136;2023-02-01T09:10:02;4.70;99.90
31113;DHT22;17763;48.730;9.136;2023-02-01T09:12:30;4.70;99.90
31113;DHT22;17763;48.730;9.136;2023-02-01T09:15:01;4.70;99.90
31113;DHT22;17763;48.730;9.136;2023-02-01T09:17:30;4.70;99.90
31113;DHT22;17763;48.730;9.136;2023-02-01T09:19:56;4.70;99.90
31113;DHT22;17763;48.730;9.136;2023-02-01T09:22:22;4.80;99.90
31113;DHT22;17763;48.730;9.136;2023-02-01T09:24:47;4.80;99.90
31113;DHT22;17763;48.730;9.136;2023-02-01T09:27:13;4.80;99.90
31113;DHT22;17763;48.730;9.136;2023-02-01T09:29:41;4.70;99.90
31113;DHT22;17763;48.730;9.136;2023-02-01T09:32:12;4.70;99.90
31113;DHT22;17763;48.730;9.136;2023-02-01T09:34:38;4.70;99.90
31113;DHT22;17763;48.730;9.136;2023-02-01T09:37:04;4.80;99.90
31113;DHT22;17763;48.730;9.136;2023-02-01T09:39:30;4.80;99.90
31113;DHT22;17763;48.730;9.136;2023-02-01T09:47:26;4.90;99.90
31113;DHT22;17763;48.730;9.136;2023-02-01T09:50:08;5.00;99.90
31113;DHT22;17763;48.730;9.136;2023-02-01T09:52:59;5.00;99.90
31113;DHT22;17763;48.730;9.136;2023-02-01T09:58:31;5.00;99.90
31113;DHT22;17763;48.730;9.136;2023-02-01T10:01:03;5.10;99.90
31113;DHT22;17763;48.730;9.136;2023-02-01T10:03:32;5.10;99.90
31113;DHT22;17763;48.730;9.136;2023-02-01T10:06:30;5.10;99.90
31113;DHT22;17763;48.730;9.136;2023-02-01T10:09:29;5.20;99.90
31113;DHT22;17763;48.730;9.136;2023-02-01T10:14:56;5.20;99.90
31113;DHT22;17763;48.730;9.136;2023-02-01T10:22:42;5.20;99.90
31113;DHT22;17763;48.730;9.136;2023-02-01T10:27:38;5.10;99.90
31113;DHT22;17763;48.730;9.136;2023-02-01T10:30:24;5.20;99.90
31113;DHT22;17763;48.730;9.136;2023-02-01T10:32:55;5.20;99.90
31113;DHT22;17763;48.730;9.136;2023-02-01T10:35:27;5.20;99.90
31113;DHT22;17763;48.730;9.136;2023-02-01T10:37:53;5.20;99.90
31113;DHT22;17763;48.730;9.136;2023-02-01T10:40:23;5.20;99.90
31113;DHT22;17763;48.730;9.136;2023-02-01T10:42:56;5.30;99.90
31113;DHT22;17763;48.730;9.136;2023-02-01T10:45:27;5.20;99.90
31113;DHT22;17763;48.730;9.136;2023-02-01T10:47:57;5.20;99.90
31113;DHT22;17763;48.730;9.136;2023-02-01T10:50:44;5.30;99.90
31113;DHT22;17763;48.730;9.136;2023-02-01T10:53:17;5.30;99.90
31113;DHT22;17763;48.730;9.136;2023-02-01T10:55:48;5.30;99.90
31113;DHT22;17763;48.730;9.136;2023-02-01T10:58:31;5.30;99.90
31113;DHT22;17763;48.730;9.136;2023-02-01T11:01:04;5.30;99.90
31113;DHT22;17763;48.730;9.136;2023-02-01T11:03:42;5.40;99.90
31113;DHT22;17763;48.730;9.136;2023-02-01T11:06:39;5.30;99.90
31113;DHT22;17763;48.730;9.136;2023-02-01T11:16:48;5.30;99.90
31113;DHT22;17763;48.730;9.136;2023-02-01T11:19:17;5.40;99.90
31113;DHT22;17763;48.730;9.136;2023-02-01T11:21:43;5.40;99.90
31113;DHT22;17763;48.730;9.136;2023-02-01T11:24:32;5.40;99.90
31113;DHT22;17763;48.730;9.136;2023-02-01T11:27:02;5.40;99.90
31113;DHT22;17763;48.730;9.136;2023-02-01T11:29:36;5.50;99.90
31113;DHT22;17763;48.730;9.136;2023-02-01T11:32:06;5.50;99.90
31113;DHT22;17763;48.730;9.136;2023-02-01T11:37:33;5.50;99.90
31113;DHT22;17763;48.730;9.136;2023-02-01T11:40:23;5.50;99.90
31113;DHT22;17763;48.730;9.136;2023-02-01T11:43:08;5.50;99.90
31113;DHT22;17763;48.730;9.136;2023-02-01T11:45:41;5.50;99.90
31113;DHT22;17763;48.730;9.136;2023-02-01T11:48:09;5.50;99.90
31113;DHT22;17763;48.730;9.136;2023-02-01T11:55:59;5.50;99.90
31113;DHT22;17763;48.730;9.136;2023-02-01T11:58:46;5.50;99.90
31113;DHT22;17763;48.730;9.136;2023-02-01T12:17:51;5.50;99.90
31113;DHT22;17763;48.730;9.136;2023-02-01T12:20:28;5.50;99.90
31113;DHT22;17763;48.730;9.136;2023-02-01T12:23:23;5.50;99.90
31113;DHT22;17763;48.730;9.136;2023-02-01T12:32:06;5.40;99.90
31113;DHT22;17763;48.730;9.136;2023-02-01T12:48:26;5.30;99.90
31113;DHT22;17763;48.730;9.136;2023-02-01T12:50:56;5.40;99.90
31113;DHT22;17763;48.730;9.136;2023-02-01T12:53:51;5.40;99.90
31113;DHT22;17763;48.730;9.136;2023-02-01T13:02:16;5.50;99.90
31113;DHT22;17763;48.730;9.136;2023-02-01T13:05:04;5.50;99.90
31113;DHT22;17763;48.730;9.136;2023-02-01T13:07:41;5.50;99.90
31113;DHT22;17763;48.730;9.136;2023-02-01T13:10:12;5.50;99.90
31113;DHT22;17763;48.730;9.136;2023-02-01T13:13:25;5.50;99.90
31113;DHT22;17763;48.730;9.136;2023-02-01T13:16:27;5.50;99.90
31113;DHT22;17763;48.730;9.136;2023-02-01T13:19:02;5.40;99.90
31113;DHT22;17763;48.730;9.136;2023-02-01T13:21:32;5.40;99.90
31113;DHT22;17763;48.730;9.136;2023-02-01T13:23:59;5.50;99.90
31113;DHT22;17763;48.730;9.136;2023-02-01T13:26:25;5.50;99.90
31113;DHT22;17763;48.730;9.136;2023-02-01T13:29:02;5.50;99.90
31113;DHT22;17763;48.730;9.136;2023-02-01T13:31:54;5.50;99.90
31113;DHT22;17763;48.730;9.136;2023-02-01T13:43:21;5.60;99.90
31113;DHT22;17763;48.730;9.136;2023-02-01T13:45:50;5.50;99.90
31113;DHT22;17763;48.730;9.136;2023-02-01T13:48:26;5.50;99.90
31113;DHT22;17763;48.730;9.136;2023-02-01T13:50:56;5.50;99.90
31113;DHT22;17763;48.730;9.136;2023-02-01T13:53:34;5.50;99.90
31113;DHT22;17763;48.730;9.136;2023-02-01T13:56:15;5.50;99.90
31113;DHT22;17763;48.730;9.136;2023-02-01T13:58:44;5.50;99.90
31113;DHT22;17763;48.730;9.136;2023-02-01T14:04:45;5.50;99.90
31113;DHT22;17763;48.730;9.136;2023-02-01T14:11:48;5.50;99.90
31113;DHT22;17763;48.730;9.136;2023-02-01T14:16:44;5.50;99.90
31113;DHT22;17763;48.730;9.136;2023-02-01T14:19:33;5.50;99.90
31113;DHT22;17763;48.730;9.136;2023-02-01T14:22:31;5.50;99.90
31113;DHT22;17763;48.730;9.136;2023-02-01T14:24:51;5.50;99.90
31113;DHT22;17763;48.730;9.136;2023-02-01T14:27:22;5.50;99.90
31113;DHT22;17763;48.730;9.136;2023-02-01T14:29:55;5.50;99.90
31113;DHT22;17763;48.730;9.136;2023-02-01T14:32:30;5.50;99.90
31113;DHT22;17763;48.730;9.136;2023-02-01T14:35:01;5.50;99.90
31113;DHT22;17763;48.730;9.136;2023-02-01T14:37:31;5.50;99.90
31113;DHT22;17763;48.730;9.136;2023-02-01T14:40:04;5.50;99.90
31113;DHT22;17763;48.730;9.136;2023-02-01T14:42:53;5.50;99.90
31113;DHT22;17763;48.730;9.136;2023-02-01T14:47:51;5.40;99.90
31113;DHT22;17763;48.730;9.136;2023-02-01T14:58:16;5.40;99.90
31113;DHT22;17763;48.730;9.136;2023-02-01T15:00:53;5.50;99.90
31113;DHT22;17763;48.730;9.136;2023-02-01T15:03:25;5.40;99.90
31113;DHT22;17763;48.730;9.136;2023-02-01T15:05:56;5.40;99.90
31113;DHT22;17763;48.730;9.136;2023-02-01T15:08:30;5.50;99.90
31113;DHT22;17763;48.730;9.136;2023-02-01T15:10:58;5.50;99.90
31113;DHT22;17763;48.730;9.136;2023-02-01T15:13:28;5.40;99.90
31113;DHT22;17763;48.730;9.136;2023-02-01T15:18:40;5.50;99.90
31113;DHT22;17763;48.730;9.136;2023-02-01T15:21:14;5.50;99.90
31113;DHT22;17763;48.730;9.136;2023-02-01T15:23:41;5.50;99.90
31113;DHT22;17763;48.730;9.136;2023-02-01T15:26:06;5.50;99.90
31113;DHT22;17763;48.730;9.136;2023-02-01T15:28:32;5.50;99.90
31113;DHT22;17763;48.730;9.136;2023-02-01T15:33:27;5.40;99.90
31113;DHT22;17763;48.730;9.136;2023-02-01T15:36:17;5.40;99.90
31113;DHT22;17763;48.730;9.136;2023-02-01T15:38:44;5.40;99.90
31113;DHT22;17763;48.730;9.136;2023-02-01T15:41:29;5.40;99.90
31113;DHT22;17763;48.730;9.136;2023-02-01T15:46:36;5.40;99.90
31113;DHT22;17763;48.730;9.136;2023-02-01T15:49:04;5.50;99.90
31113;DHT22;17763;48.730;9.136;2023-02-01T15:51:31;5.50;99.90
31113;DHT22;17763;48.730;9.136;2023-02-01T15:54:05;5.50;99.90
31113;DHT22;17763;48.730;9.136;2023-02-01T15:56:37;5.50;99.90
31113;DHT22;17763;48.730;9.136;2023-02-01T15:59:06;5.50;99.90
31113;DHT22;17763;48.730;9.136;2023-02-01T16:01:38;5.60;99.90
31113;DHT22;17763;48.730;9.136;2023-02-01T16:04:14;5.50;99.90
31113;DHT22;17763;48.730;9.136;2023-02-01T16:06:53;5.50;99.90
31113;DHT22;17763;48.730;9.136;2023-02-01T16:09:25;5.50;99.90
31113;DHT22;17763;48.730;9.136;2023-02-01T16:12:02;5.50;99.90
31113;DHT22;17763;48.730;9.136;2023-02-01T16:14:30;5.50;99.90
31113;DHT22;17763;48.730;9.136;2023-02-01T16:16:58;5.50;99.90
31113;DHT22;17763;48.730;9.136;2023-02-01T16:19:26;5.50;99.90
31113;DHT22;17763;48.730;9.136;2023-02-01T16:21:56;5.60;99.90
31113;DHT22;17763;48.730;9.136;2023-02-01T16:24:23;5.50;99.90
31113;DHT22;17763;48.730;9.136;2023-02-01T16:26:51;5.50;99.90
31113;DHT22;17763;48.730;9.136;2023-02-01T16:29:19;5.60;99.90
31113;DHT22;17763;48.730;9.136;2023-02-01T16:31:48;5.60;99.90
31113;DHT22;17763;48.730;9.136;2023-02-01T16:34:16;5.50;99.90
31113;DHT22;17763;48.730;9.136;2023-02-01T16:36:50;5.60;99.90
31113;DHT22;17763;48.730;9.136;2023-02-01T16:39:18;5.50;99.90
31113;DHT22;17763;48.730;9.136;2023-02-01T16:41:47;5.60;99.90
31113;DHT22;17763;48.730;9.136;2023-02-01T16:44:15;5.60;99.90
31113;DHT22;17763;48.730;9.136;2023-02-01T16:46:43;5.60;99.90
31113;DHT22;17763;48.730;9.136;2023-02-01T16:49:22;5.60;99.90
31113;DHT22;17763;48.730;9.136;2023-02-01T16:51:49;5.60;99.90
31113;DHT22;17763;48.730;9.136;2023-02-01T16:54:18;5.60;99.90
31113;DHT22;17763;48.730;9.136;2023-02-01T16:56:47;5.60;99.90
31113;DHT22;17763;48.730;9.136;2023-02-01T16:59:13;5.60;99.90
31113;DHT22;17763;48.730;9.136;2023-02-01T17:01:40;5.60;99.90
31113;DHT22;17763;48.730;9.136;2023-02-01T17:04:08;5.60;99.90
31113;DHT22;17763;48.730;9.136;2023-02-01T17:06:36;5.60;99.90
31113;DHT22;17763;48.730;9.136;2023-02-01T17:09:03;5.50;99.90
31113;DHT22;17763;48.730;9.136;2023-02-01T17:11:31;5.50;99.90
31113;DHT22;17763;48.730;9.136;2023-02-01T17:14:08;5.50;99.90
31113;DHT22;17763;48.730;9.136;2023-02-01T17:16:37;5.40;99.90
31113;DHT22;17763;48.730;9.136;2023-02-01T17:19:12;5.40;99.90
31113;DHT22;17763;48.730;9.136;2023-02-01T17:21:50;5.30;99.90
31113;DHT22;17763;48.730;9.136;2023-02-01T17:24:22;5.40;99.90
31113;DHT22;17763;48.730;9.136;2023-02-01T17:26:53;5.40;99.90
31113;DHT22;17763;48.730;9.136;2023-02-01T17:29:21;5.30;99.90
31113;DHT22;17763;48.730;9.136;2023-02-01T17:31:49;5.30;99.90
31113;DHT22;17763;48.730;9.136;2023-02-01T17:34:16;5.30;99.90
31113;DHT22;17763;48.730;9.136;2023-02-01T17:36:46;5.30;99.90
31113;DHT22;17763;48.730;9.136;2023-02-01T17:39:13;5.30;99.90
31113;DHT22;17763;48.730;9.136;2023-02-01T17:42:00;5.40;99.90
31113;DHT22;17763;48.730;9.136;2023-02-01T17:44:27;5.40;99.90
31113;DHT22;17763;48.730;9.136;2023-02-01T17:46:53;5.40;99.90
31113;DHT22;17763;48.730;9.136;2023-02-01T17:49:23;5.40;99.90
31113;DHT22;17763;48.730;9.136;2023-02-01T17:51:49;5.40;99.90
31113;DHT22;17763;48.730;9.136;2023-02-01T17:54:16;5.40;99.90
31113;DHT22;17763;48.730;9.136;2023-02-01T17:56:46;5.40;99.90
31113;DHT22;17763;48.730;9.136;2023-02-01T17:59:15;5.40;99.90
31113;DHT22;17763;48.730;9.136;2023-02-01T18:01:42;5.40;99.90
31113;DHT22;17763;48.730;9.136;2023-02-01T18:04:12;5.40;99.90
31113;DHT22;17763;48.730;9.136;2023-02-01T18:06:42;5.40;99.90
31113;DHT22;17763;48.730;9.136;2023-02-01T18:09:09;5.30;99.90
31113;DHT22;17763;48.730;9.136;2023-02-01T18:11:40;5.30;99.90
31113;DHT22;17763;48.730;9.136;2023-02-01T18:14:11;5.30;99.90
31113;DHT22;17763;48.730;9.136;2023-02-01T18:16:40;5.30;99.90
31113;DHT22;17763;48.730;9.136;2023-02-01T18:19:06;5.20;99.90
31113;DHT22;17763;48.730;9.136;2023-02-01T18:21:35;5.20;99.90